sensor_id;sensor_type;location;lat;lon;timestamp;temperature;humidity
12166;DHT22;6146;48.128;11.476;2023-03-01T00:01:18;1.70;99.90
12166;DHT22;6146;48.128;11.476;2023-03-01T00:03:44;1.60;99.90
12166;DHT22;6146;48.128;11.476;2023-03-01T00:06:10;1.50;99.90
12166;DHT22;6146;48.128;11.476;2023-03-01T00:08:36;1.50;99.90
12166;DHT22;6146;48.128;11.476;2023-03-01T00:11:24;1.50;99.90
12166;DHT22;6146;48.128;11.476;2023-03-01T00:13:53;1.50;99.90
12166;DHT22;6146;48.128;11.476;2023-03-01T00:16:22;1.50;99.90
12166;DHT22;6146;48.128;11.476;2023-03-01T00:18:48;1.60;99.90
12166;DHT22;6146;48.128;11.476;2023-03-01T00:21:14;1.60;99.90
12166;DHT22;6146;48.128;11.476;2023-03-01T00:23:40;1.50;99.90
12166;DHT22;6146;48.128;11.476;2023-03-01T00:26:08;1.50;99.90
12166;DHT22;6146;48.128;11.476;2023-03-01T00:28:34;1.50;99.90
12166;DHT22;6146;48.128;11.476;2023-03-01T00:31:07;1.50;99.90
12166;DHT22;6146;48.128;11.476;2023-03-01T00:33:33;1.60;99.90
12166;DHT22;6146;48.128;11.476;2023-03-01T00:35:59;1.60;99.90
12166;DHT22;6146;48.128;11.476;2023-03-01T00:38:25;1.50;99.90
12166;DHT22;6146;48.128;11.476;2023-03-01T00:40:50;1.40;99.90
12166;DHT22;6146;48.128;11.476;2023-03-01T00:43:16;1.50;99.90
12166;DHT22;6146;48.128;11.476;2023-03-01T00:45:41;1.50;99.90
12166;DHT22;6146;48.128;11.476;2023-03-01T00:48:07;1.50;99.90
12166;DHT22;6146;48.128;11.476;2023-03-01T00:50:33;1.60;99.90
12166;DHT22;6146;48.128;11.476;2023-03-01T00:52:58;1.50;99.90
12166;DHT22;6146;48.128;11.476;2023-03-01T00:55:24;1.50;99.90
12166;DHT22;6146;48.128;11.476;2023-03-01T00:57:50;1.50;99.90
12166;DHT22;6146;48.128;11.476;2023-03-01T01:00:17;1.50;99.90
12166;DHT22;6146;48.128;11.476;2023-03-01T01:02:43;1.50;99.90
12166;DHT22;6146;48.128;11.476;2023-03-01T01:05:08;1.50;99.90
12166;DHT22;6146;48.128;11.476;2023-03-01T01:07:34;1.40;99.90
12166;DHT22;6146;48.128;11.476;2023-03-01T01:10:00;1.40;99.90
12166;DHT22;6146;48.128;11.476;2023-03-01T01:12:25;1.40;99.90
12166;DHT22;6146;48.128;11.476;2023-03-01T01:14:51;1.30;99.90
12166;DHT22;6146;48.128;11.476;2023-03-01T01:17:16;1.40;99.90
12166;DHT22;6146;48.128;11.476;2023-03-01T01:19:42;1.40;99.90
12166;DHT22;6146;48.128;11.476;2023-03-01T01:22:08;1.40;99.90
12166;DHT22;6146;48.128;11.476;2023-03-01T01:24:33;1.30;99.90
12166;DHT22;6146;48.128;11.476;2023-03-01T01:26:59;1.30;99.90
12166;DHT22;6146;48.128;11.476;2023-03-01T01:29:24;1.30;99.90
12166;DHT22;6146;48.128;11.476;2023-03-01T01:31:50;1.30;99.90
12166;DHT22;6146;48.128;11.476;2023-03-01T01:34:18;1.40;99.90
12166;DHT22;6146;48.128;11.476;2023-03-01T01:36:44;1.40;99.90
12166;DHT22;6146;48.128;11.476;2023-03-01T01:39:12;1.40;99.90
12166;DHT22;6146;48.128;11.476;2023-03-01T01:41:39;1.40;99.90
12166;DHT22;6146;48.128;11.476;2023-03-01T01:44:21;1.30;99.90
12166;DHT22;6146;48.128;11.476;2023-03-01T01:47:00;1.30;99.90
12166;DHT22;6146;48.128;11.476;2023-03-01T01:52:09;1.20;99.90
12166;DHT22;6146;48.128;11.476;2023-03-01T01:54:45;1.20;99.90
12166;DHT22;6146;48.128;11.476;2023-03-01T01:57:16;1.30;99.90
12166;DHT22;6146;48.128;11.476;2023-03-01T01:59:46;1.30;99.90
12166;DHT22;6146;48.128;11.476;2023-03-01T02:02:13;1.30;99.90
12166;DHT22;6146;48.128;11.476;2023-03-01T02:04:39;1.30;99.90
12166;DHT22;6146;48.128;11.476;2023-03-01T02:07:18;1.30;99.90
12166;DHT22;6146;48.128;11.476;2023-03-01T02:09:47;1.30;99.90
12166;DHT22;6146;48.128;11.476;2023-03-01T02:12:15;1.20;99.90
12166;DHT22;6146;48.128;11.476;2023-03-01T02:14:42;1.20;99.90
12166;DHT22;6146;48.128;11.476;2023-03-01T02:17:10;1.20;99.90
12166;DHT22;6146;48.128;11.476;2023-03-01T02:25:20;1.20;99.90
12166;DHT22;6146;48.128;11.476;2023-03-01T02:30:42;1.10;99.90
12166;DHT22;6146;48.128;11.476;2023-03-01T02:33:29;1.10;99.90
12166;DHT22;6146;48.128;11.476;2023-03-01T02:36:12;1.00;99.90
12166;DHT22;6146;48.128;11.476;2023-03-01T02:38:40;1.10;99.90
12166;DHT22;6146;48.128;11.476;2023-03-01T02:41:07;1.00;99.90
12166;DHT22;6146;48.128;11.476;2023-03-01T02:43:34;1.00;99.90
12166;DHT22;6146;48.128;11.476;2023-03-01T02:46:06;1.10;99.90
12166;DHT22;6146;48.128;11.476;2023-03-01T02:48:47;1.10;99.90
12166;DHT22;6146;48.128;11.476;2023-03-01T02:54:08;1.10;99.90
12166;DHT22;6146;48.128;11.476;2023-03-01T02:56:35;1.10;99.90
12166;DHT22;6146;48.128;11.476;2023-03-01T02:59:01;1.10;99.90
12166;DHT22;6146;48.128;11.476;2023-03-01T03:01:27;1.10;99.90
12166;DHT22;6146;48.128;11.476;2023-03-01T03:04:06;1.10;99.90
12166;DHT22;6146;48.128;11.476;2023-03-01T03:06:33;1.10;99.90
12166;DHT22;6146;48.128;11.476;2023-03-01T03:08:59;1.10;99.90
12166;DHT22;6146;48.128;11.476;2023-03-01T03:11:25;1.00;99.90
12166;DHT22;6146;48.128;11.476;2023-03-01T03:13:51;1.00;99.90
12166;DHT22;6146;48.128;11.476;2023-03-01T03:16:18;0.90;99.90
12166;DHT22;6146;48.128;11.476;2023-03-01T03:18:44;1.00;99.90
12166;DHT22;6146;48.128;11.476;2023-03-01T03:21:11;1.00;99.90
12166;DHT22;6146;48.128;11.476;2023-03-01T03:23:37;0.90;99.90
12166;DHT22;6146;48.128;11.476;2023-03-01T03:26:04;0.80;99.90
12166;DHT22;6146;48.128;11.476;2023-03-01T03:28:30;0.90;99.90
12166;DHT22;6146;48.128;11.476;2023-03-01T03:30:56;0.80;99.90
12166;DHT22;6146;48.128;11.476;2023-03-01T03:33:21;0.80;99.90
12166;DHT22;6146;48.128;11.476;2023-03-01T03:35:48;0.80;99.90
12166;DHT22;6146;48.128;11.476;2023-03-01T03:38:16;0.80;99.90
12166;DHT22;6146;48.128;11.476;2023-03-01T03:40:43;0.80;99.90
12166;DHT22;6146;48.128;11.476;2023-03-01T03:43:15;0.80;99.90
12166;DHT22;6146;48.128;11.476;2023-03-01T03:45:43;0.80;99.90
12166;DHT22;6146;48.128;11.476;2023-03-01T03:48:09;0.70;99.90
12166;DHT22;6146;48.128;11.476;2023-03-01T03:50:36;0.70;99.90
12166;DHT22;6146;48.128;11.476;2023-03-01T03:53:06;0.80;99.90
12166;DHT22;6146;48.128;11.476;2023-03-01T03:55:32;0.80;99.90
12166;DHT22;6146;48.128;11.476;2023-03-01T03:58:00;0.80;99.90
12166;DHT22;6146;48.128;11.476;2023-03-01T04:00:32;0.80;99.90
12166;DHT22;6146;48.128;11.476;2023-03-01T04:02:58;0.70;99.90
12166;DHT22;6146;48.128;11.476;2023-03-01T04:05:24;0.60;99.90
12166;DHT22;6146;48.128;11.476;2023-03-01T04:07:50;0.50;99.90
12166;DHT22;6146;48.128;11.476;2023-03-01T04:10:26;0.50;99.90
12166;DHT22;6146;48.128;11.476;2023-03-01T04:12:52;0.50;99.90
12166;DHT22;6146;48.128;11.476;2023-03-01T04:15:18;0.60;99.90
12166;DHT22;6146;48.128;11.476;2023-03-01T04:17:45;0.60;99.90
12166;DHT22;6146;48.128;11.476;2023-03-01T04:20:13;0.60;99.90
12166;DHT22;6146;48.128;11.476;2023-03-01T04:22:43;0.70;99.90
12166;DHT22;6146;48.128;11.476;2023-03-01T04:25:09;0.70;99.90
12166;DHT22;6146;48.128;11.476;2023-03-01T04:27:35;0.60;99.90
12166;DHT22;6146;48.128;11.476;2023-03-01T04:30:03;0.50;99.90
12166;DHT22;6146;48.128;11.476;2023-03-01T04:32:29;0.50;99.90
12166;DHT22;6146;48.128;11.476;2023-03-01T04:34:54;0.50;99.90
12166;DHT22;6146;48.128;11.476;2023-03-01T04:37:20;0.50;99.90
12166;DHT22;6146;48.128;11.476;2023-03-01T04:39:45;0.50;99.90
12166;DHT22;6146;48.128;11.476;2023-03-01T04:42:13;0.50;99.90
12166;DHT22;6146;48.128;11.476;2023-03-01T04:44:39;0.60;99.90
12166;DHT22;6146;48.128;11.476;2023-03-01T04:47:05;0.60;99.90
12166;DHT22;6146;48.128;11.476;2023-03-01T04:49:31;0.60;99.90
12166;DHT22;6146;48.128;11.476;2023-03-01T04:51:57;0.50;99.90
12166;DHT22;6146;48.128;11.476;2023-03-01T04:54:30;0.50;99.90
12166;DHT22;6146;48.128;11.476;2023-03-01T04:56:55;0.50;99.90
12166;DHT22;6146;48.128;11.476;2023-03-01T04:59:21;0.50;99.90
12166;DHT22;6146;48.128;11.476;2023-03-01T05:01:48;0.40;99.90
12166;DHT22;6146;48.128;11.476;2023-03-01T05:04:14;0.40;99.90
12166;DHT22;6146;48.128;11.476;2023-03-01T05:06:40;0.30;99.90
12166;DHT22;6146;48.128;11.476;2023-03-01T05:09:06;0.20;99.90
12166;DHT22;6146;48.128;11.476;2023-03-01T05:11:31;0.20;99.90
12166;DHT22;6146;48.128;11.476;2023-03-01T05:14:01;0.20;99.90
12166;DHT22;6146;48.128;11.476;2023-03-01T05:16:27;0.20;99.90
12166;DHT22;6146;48.128;11.476;2023-03-01T05:18:52;0.20;99.90
12166;DHT22;6146;48.128;11.476;2023-03-01T05:21:21;0.20;99.90
12166;DHT22;6146;48.128;11.476;2023-03-01T05:23:46;0.10;99.90
12166;DHT22;6146;48.128;11.476;2023-03-01T05:26:13;0.10;99.90
12166;DHT22;6146;48.128;11.476;2023-03-01T05:28:39;0.10;99.90
12166;DHT22;6146;48.128;11.476;2023-03-01T05:31:05;0.10;99.90
12166;DHT22;6146;48.128;11.476;2023-03-01T05:33:38;0.00;99.90
12166;DHT22;6146;48.128;11.476;2023-03-01T05:36:05;-0.10;99.90
12166;DHT22;6146;48.128;11.476;2023-03-01T05:38:30;-0.10;99.90
12166;DHT22;6146;48.128;11.476;2023-03-01T05:40:56;0.00;99.90
12166;DHT22;6146;48.128;11.476;2023-03-01T05:43:22;0.00;99.90
12166;DHT22;6146;48.128;11.476;2023-03-01T05:45:47;0.00;99.90
12166;DHT22;6146;48.128;11.476;2023-03-01T05:48:13;-0.10;99.90
12166;DHT22;6146;48.128;11.476;2023-03-01T05:50:41;-0.10;99.90
12166;DHT22;6146;48.128;11.476;2023-03-01T05:53:19;-0.10;99.90
12166;DHT22;6146;48.128;11.476;2023-03-01T05:55:48;-0.10;99.90
12166;DHT22;6146;48.128;11.476;2023-03-01T05:58:17;-0.10;99.90
12166;DHT22;6146;48.128;11.476;2023-03-01T06:00:44;-0.10;99.90
12166;DHT22;6146;48.128;11.476;2023-03-01T06:03:11;-0.20;99.90
12166;DHT22;6146;48.128;11.476;2023-03-01T06:05:38;-0.20;99.90
12166;DHT22;6146;48.128;11.476;2023-03-01T06:08:04;-0.20;99.90
12166;DHT22;6146;48.128;11.476;2023-03-01T06:10:30;-0.20;99.90
12166;DHT22;6146;48.128;11.476;2023-03-01T06:12:56;-0.20;99.90
12166;DHT22;6146;48.128;11.476;2023-03-01T06:15:22;-0.20;99.90
12166;DHT22;6146;48.128;11.476;2023-03-01T06:17:48;-0.10;99.90
12166;DHT22;6146;48.128;11.476;2023-03-01T06:20:19;-0.10;99.90
12166;DHT22;6146;48.128;11.476;2023-03-01T06:22:45;-0.10;99.90
12166;DHT22;6146;48.128;11.476;2023-03-01T06:25:13;-0.10;99.90
12166;DHT22;6146;48.128;11.476;2023-03-01T06:27:40;-0.10;99.90
12166;DHT22;6146;48.128;11.476;2023-03-01T06:30:06;-0.10;99.90
12166;DHT22;6146;48.128;11.476;2023-03-01T06:32:33;-0.20;99.90
12166;DHT22;6146;48.128;11.476;2023-03-01T06:34:58;-0.20;99.90
12166;DHT22;6146;48.128;11.476;2023-03-01T06:37:25;-0.30;99.90
12166;DHT22;6146;48.128;11.476;2023-03-01T06:39:51;-0.30;99.90
12166;DHT22;6146;48.128;11.476;2023-03-01T06:42:16;-0.30;99.90
12166;DHT22;6146;48.128;11.476;2023-03-01T06:44:42;-0.40;99.90
12166;DHT22;6146;48.128;11.476;2023-03-01T06:47:07;-0.30;99.90
12166;DHT22;6146;48.128;11.476;2023-03-01T06:49:33;-0.20;99.90
12166;DHT22;6146;48.128;11.476;2023-03-01T06:51:58;-0.10;99.90
12166;DHT22;6146;48.128;11.476;2023-03-01T06:54:24;-0.20;99.90
12166;DHT22;6146;48.128;11.476;2023-03-01T06:56:50;-0.10;99.90
12166;DHT22;6146;48.128;11.476;2023-03-01T06:59:17;0.00;99.90
12166;DHT22;6146;48.128;11.476;2023-03-01T07:01:43;0.00;99.90
12166;DHT22;6146;48.128;11.476;2023-03-01T07:04:09;0.00;99.90
12166;DHT22;6146;48.128;11.476;2023-03-01T07:06:35;0.20;99.90
12166;DHT22;6146;48.128;11.476;2023-03-01T07:09:00;0.10;99.90
12166;DHT22;6146;48.128;11.476;2023-03-01T07:11:26;0.00;99.90
12166;DHT22;6146;48.128;11.476;2023-03-01T07:13:51;0.00;99.90
12166;DHT22;6146;48.128;11.476;2023-03-01T07:16:17;0.00;99.90
12166;DHT22;6146;48.128;11.476;2023-03-01T07:18:43;0.10;99.90
12166;DHT22;6146;48.128;11.476;2023-03-01T07:21:12;0.10;99.90
12166;DHT22;6146;48.128;11.476;2023-03-01T07:23:37;0.20;99.90
12166;DHT22;6146;48.128;11.476;2023-03-01T07:26:03;0.30;99.90
12166;DHT22;6146;48.128;11.476;2023-03-01T07:28:29;0.40;99.90
12166;DHT22;6146;48.128;11.476;2023-03-01T07:31:00;0.50;99.90
12166;DHT22;6146;48.128;11.476;2023-03-01T07:33:25;0.40;99.90
12166;DHT22;6146;48.128;11.476;2023-03-01T07:35:56;0.40;99.90
12166;DHT22;6146;48.128;11.476;2023-03-01T07:38:23;0.50;99.90
12166;DHT22;6146;48.128;11.476;2023-03-01T07:40:48;0.50;99.90
12166;DHT22;6146;48.128;11.476;2023-03-01T07:43:14;0.50;99.90
12166;DHT22;6146;48.128;11.476;2023-03-01T07:45:39;0.40;99.90
12166;DHT22;6146;48.128;11.476;2023-03-01T07:48:05;0.40;99.90
12166;DHT22;6146;48.128;11.476;2023-03-01T07:50:30;0.40;99.90
12166;DHT22;6146;48.128;11.476;2023-03-01T07:52:56;0.40;99.90
12166;DHT22;6146;48.128;11.476;2023-03-01T07:55:21;0.40;99.90
12166;DHT22;6146;48.128;11.476;2023-03-01T07:57:47;0.40;99.90
12166;DHT22;6146;48.128;11.476;2023-03-01T08:00:13;0.60;99.90
12166;DHT22;6146;48.128;11.476;2023-03-01T08:02:38;0.70;99.90
12166;DHT22;6146;48.128;11.476;2023-03-01T08:05:05;0.60;99.90
12166;DHT22;6146;48.128;11.476;2023-03-01T08:07:31;0.70;99.90
12166;DHT22;6146;48.128;11.476;2023-03-01T08:09:58;0.80;99.90
12166;DHT22;6146;48.128;11.476;2023-03-01T08:12:23;0.90;99.90
12166;DHT22;6146;48.128;11.476;2023-03-01T08:14:49;0.80;99.90
12166;DHT22;6146;48.128;11.476;2023-03-01T08:17:14;0.70;99.90
12166;DHT22;6146;48.128;11.476;2023-03-01T08:19:40;0.70;99.90
12166;DHT22;6146;48.128;11.476;2023-03-01T08:22:05;0.80;99.90
12166;DHT22;6146;48.128;11.476;2023-03-01T08:24:31;0.90;99.90
12166;DHT22;6146;48.128;11.476;2023-03-01T08:26:57;1.20;99.90
12166;DHT22;6146;48.128;11.476;2023-03-01T08:29:22;1.40;99.90
12166;DHT22;6146;48.128;11.476;2023-03-01T08:31:50;1.50;99.90
12166;DHT22;6146;48.128;11.476;2023-03-01T08:34:17;1.40;99.90
12166;DHT22;6146;48.128;11.476;2023-03-01T08:36:45;1.40;99.90
12166;DHT22;6146;48.128;11.476;2023-03-01T08:39:14;1.30;99.90
12166;DHT22;6146;48.128;11.476;2023-03-01T08:41:40;1.20;99.90
12166;DHT22;6146;48.128;11.476;2023-03-01T08:44:06;1.30;99.90
12166;DHT22;6146;48.128;11.476;2023-03-01T08:46:35;1.50;99.90
12166;DHT22;6146;48.128;11.476;2023-03-01T08:49:04;1.50;99.90
12166;DHT22;6146;48.128;11.476;2023-03-01T08:51:30;1.60;99.90
12166;DHT22;6146;48.128;11.476;2023-03-01T08:53:57;1.70;99.90
12166;DHT22;6146;48.128;11.476;2023-03-01T08:56:23;1.70;99.90
12166;DHT22;6146;48.128;11.476;2023-03-01T08:58:49;1.60;99.90
12166;DHT22;6146;48.128;11.476;2023-03-01T09:01:17;1.60;99.90
12166;DHT22;6146;48.128;11.476;2023-03-01T09:03:43;1.60;99.90
12166;DHT22;6146;48.128;11.476;2023-03-01T09:06:09;1.60;99.90
12166;DHT22;6146;48.128;11.476;2023-03-01T09:08:38;1.60;99.90
12166;DHT22;6146;48.128;11.476;2023-03-01T09:11:05;1.60;99.90
12166;DHT22;6146;48.128;11.476;2023-03-01T09:13:31;1.70;99.90
12166;DHT22;6146;48.128;11.476;2023-03-01T09:16:01;1.90;99.90
12166;DHT22;6146;48.128;11.476;2023-03-01T09:18:27;2.00;99.90
12166;DHT22;6146;48.128;11.476;2023-03-01T09:20:52;1.80;99.90
12166;DHT22;6146;48.128;11.476;2023-03-01T09:23:20;1.70;99.90
12166;DHT22;6146;48.128;11.476;2023-03-01T09:25:46;1.70;99.90
12166;DHT22;6146;48.128;11.476;2023-03-01T09:28:12;1.80;99.90
12166;DHT22;6146;48.128;11.476;2023-03-01T09:30:37;1.90;99.90
12166;DHT22;6146;48.128;11.476;2023-03-01T09:33:03;1.90;99.90
12166;DHT22;6146;48.128;11.476;2023-03-01T09:35:28;1.80;99.90
12166;DHT22;6146;48.128;11.476;2023-03-01T09:37:54;1.80;99.90
12166;DHT22;6146;48.128;11.476;2023-03-01T09:40:22;1.90;99.90
12166;DHT22;6146;48.128;11.476;2023-03-01T09:43:54;2.10;99.90
12166;DHT22;6146;48.128;11.476;2023-03-01T09:45:55;1.90;99.90
12166;DHT22;6146;48.128;11.476;2023-03-01T09:48:27;1.90;99.90
12166;DHT22;6146;48.128;11.476;2023-03-01T09:50:54;2.10;99.90
12166;DHT22;6146;48.128;11.476;2023-03-01T09:53:22;1.80;99.90
12166;DHT22;6146;48.128;11.476;2023-03-01T09:55:58;1.80;99.90
12166;DHT22;6146;48.128;11.476;2023-03-01T09:59:17;1.80;99.90
12166;DHT22;6146;48.128;11.476;2023-03-01T10:02:32;2.00;99.90
12166;DHT22;6146;48.128;11.476;2023-03-01T10:09:43;2.30;99.90
12166;DHT22;6146;48.128;11.476;2023-03-01T10:12:22;2.30;99.90
12166;DHT22;6146;48.128;11.476;2023-03-01T10:17:50;2.80;99.90
12166;DHT22;6146;48.128;11.476;2023-03-01T10:20:21;2.80;99.90
12166;DHT22;6146;48.128;11.476;2023-03-01T10:22:47;2.80;99.90
12166;DHT22;6146;48.128;11.476;2023-03-01T10:25:36;2.70;99.90
12166;DHT22;6146;48.128;11.476;2023-03-01T10:28:18;2.80;99.90
12166;DHT22;6146;48.128;11.476;2023-03-01T10:30:45;3.20;99.90
12166;DHT22;6146;48.128;11.476;2023-03-01T10:33:20;2.70;99.90
12166;DHT22;6146;48.128;11.476;2023-03-01T10:35:46;2.40;99.90
12166;DHT22;6146;48.128;11.476;2023-03-01T10:38:13;2.50;99.90
12166;DHT22;6146;48.128;11.476;2023-03-01T10:40:57;2.30;99.90
12166;DHT22;6146;48.128;11.476;2023-03-01T10:43:44;2.50;99.90
12166;DHT22;6146;48.128;11.476;2023-03-01T10:49:15;2.70;99.90
12166;DHT22;6146;48.128;11.476;2023-03-01T10:51:43;2.50;99.90
12166;DHT22;6146;48.128;11.476;2023-03-01T10:54:28;2.80;99.90
12166;DHT22;6146;48.128;11.476;2023-03-01T10:56:57;3.00;99.90
12166;DHT22;6146;48.128;11.476;2023-03-01T11:04:27;3.40;99.90
12166;DHT22;6146;48.128;11.476;2023-03-01T11:06:59;3.90;99.90
12166;DHT22;6146;48.128;11.476;2023-03-01T11:09:25;4.90;99.90
12166;DHT22;6146;48.128;11.476;2023-03-01T11:11:57;5.10;99.90
12166;DHT22;6146;48.128;11.476;2023-03-01T11:14:29;4.90;99.90
12166;DHT22;6146;48.128;11.476;2023-03-01T11:19:37;5.20;99.90
12166;DHT22;6146;48.128;11.476;2023-03-01T11:22:15;7.10;99.90
12166;DHT22;6146;48.128;11.476;2023-03-01T11:24:45;8.70;99.90
12166;DHT22;6146;48.128;11.476;2023-03-01T11:29:52;6.20;99.90
12166;DHT22;6146;48.128;11.476;2023-03-01T11:32:22;6.50;99.90
12166;DHT22;6146;48.128;11.476;2023-03-01T11:34:55;6.70;99.90
12166;DHT22;6146;48.128;11.476;2023-03-01T11:41:00;7.00;99.90
12166;DHT22;6146;48.128;11.476;2023-03-01T11:57:12;9.60;94.90
12166;DHT22;6146;48.128;11.476;2023-03-01T12:05:46;8.60;95.80
12166;DHT22;6146;48.128;11.476;2023-03-01T12:08:28;6.80;99.30
12166;DHT22;6146;48.128;11.476;2023-03-01T12:16:52;8.20;98.10
12166;DHT22;6146;48.128;11.476;2023-03-01T12:19:37;9.40;96.00
12166;DHT22;6146;48.128;11.476;2023-03-01T12:43:41;9.90;94.40
12166;DHT22;6146;48.128;11.476;2023-03-01T12:51:37;11.50;92.20
12166;DHT22;6146;48.128;11.476;2023-03-01T12:54:16;11.20;91.20
12166;DHT22;6146;48.128;11.476;2023-03-01T12:56:45;10.80;91.90
12166;DHT22;6146;48.128;11.476;2023-03-01T12:59:23;10.70;92.30
12166;DHT22;6146;48.128;11.476;2023-03-01T13:01:56;11.00;91.50
12166;DHT22;6146;48.128;11.476;2023-03-01T13:04:50;9.90;92.50
12166;DHT22;6146;48.128;11.476;2023-03-01T13:07:41;8.40;95.30
12166;DHT22;6146;48.128;11.476;2023-03-01T13:13:13;7.40;98.20
12166;DHT22;6146;48.128;11.476;2023-03-01T13:15:39;7.80;98.30
12166;DHT22;6146;48.128;11.476;2023-03-01T13:26:17;9.10;95.40
12166;DHT22;6146;48.128;11.476;2023-03-01T13:28:52;9.20;94.80
12166;DHT22;6146;48.128;11.476;2023-03-01T13:33:53;9.20;95.20
12166;DHT22;6146;48.128;11.476;2023-03-01T13:38:55;8.20;96.70
12166;DHT22;6146;48.128;11.476;2023-03-01T13:44:35;9.30;94.90
12166;DHT22;6146;48.128;11.476;2023-03-01T13:49:51;9.20;95.50
12166;DHT22;6146;48.128;11.476;2023-03-01T13:52:39;9.20;95.50
12166;DHT22;6146;48.128;11.476;2023-03-01T13:57:42;8.20;97.10
12166;DHT22;6146;48.128;11.476;2023-03-01T14:05:36;8.00;98.20
12166;DHT22;6146;48.128;11.476;2023-03-01T14:08:19;7.40;99.10
12166;DHT22;6146;48.128;11.476;2023-03-01T14:16:33;7.20;99.90
12166;DHT22;6146;48.128;11.476;2023-03-01T14:19:15;7.00;99.90
12166;DHT22;6146;48.128;11.476;2023-03-01T14:21:42;6.90;99.90
12166;DHT22;6146;48.128;11.476;2023-03-01T14:24:17;6.70;99.90
12166;DHT22;6146;48.128;11.476;2023-03-01T14:26:43;6.50;99.90
12166;DHT22;6146;48.128;11.476;2023-03-01T14:29:24;6.50;99.90
12166;DHT22;6146;48.128;11.476;2023-03-01T14:31:50;6.70;99.90
12166;DHT22;6146;48.128;11.476;2023-03-01T14:34:21;7.00;99.90
12166;DHT22;6146;48.128;11.476;2023-03-01T14:36:47;6.90;99.90
12166;DHT22;6146;48.128;11.476;2023-03-01T14:39:22;6.70;99.90
12166;DHT22;6146;48.128;11.476;2023-03-01T14:41:49;6.50;99.90
12166;DHT22;6146;48.128;11.476;2023-03-01T14:44:20;6.60;99.90
12166;DHT22;6146;48.128;11.476;2023-03-01T14:46:52;6.50;99.90
12166;DHT22;6146;48.128;11.476;2023-03-01T14:49:28;6.60;99.90
12166;DHT22;6146;48.128;11.476;2023-03-01T14:52:06;6.70;99.90
12166;DHT22;6146;48.128;11.476;2023-03-01T14:54:40;6.60;99.90
12166;DHT22;6146;48.128;11.476;2023-03-01T14:57:22;6.60;99.90
12166;DHT22;6146;48.128;11.476;2023-03-01T14:59:48;6.30;99.90
12166;DHT22;6146;48.128;11.476;2023-03-01T15:02:18;6.40;99.90
12166;DHT22;6146;48.128;11.476;2023-03-01T15:04:50;6.60;99.90
12166;DHT22;6146;48.128;11.476;2023-03-01T15:07:17;6.60;99.90
12166;DHT22;6146;48.128;11.476;2023-03-01T15:09:44;6.80;99.90
12166;DHT22;6146;48.128;11.476;2023-03-01T15:14:57;6.60;99.90
12166;DHT22;6146;48.128;11.476;2023-03-01T15:17:37;6.80;99.90
12166;DHT22;6146;48.128;11.476;2023-03-01T15:20:17;6.80;99.90
12166;DHT22;6146;48.128;11.476;2023-03-01T15:22:46;6.70;99.90
12166;DHT22;6146;48.128;11.476;2023-03-01T15:25:22;6.60;99.90
12166;DHT22;6146;48.128;11.476;2023-03-01T15:27:50;6.60;99.90
12166;DHT22;6146;48.128;11.476;2023-03-01T15:30:23;6.40;99.90
12166;DHT22;6146;48.128;11.476;2023-03-01T15:33:16;6.40;99.90
12166;DHT22;6146;48.128;11.476;2023-03-01T15:35:46;6.50;99.90
12166;DHT22;6146;48.128;11.476;2023-03-01T15:38:34;6.50;99.90
12166;DHT22;6146;48.128;11.476;2023-03-01T15:41:03;6.40;99.90
12166;DHT22;6146;48.128;11.476;2023-03-01T15:43:45;6.30;99.90
12166;DHT22;6146;48.128;11.476;2023-03-01T15:46:32;6.20;99.90
12166;DHT22;6146;48.128;11.476;2023-03-01T15:49:01;6.20;99.90
12166;DHT22;6146;48.128;11.476;2023-03-01T15:51:31;6.40;99.90
12166;DHT22;6146;48.128;11.476;2023-03-01T15:53:59;6.30;99.90
12166;DHT22;6146;48.128;11.476;2023-03-01T15:56:25;6.20;99.90
12166;DHT22;6146;48.128;11.476;2023-03-01T15:58:51;6.30;99.90
12166;DHT22;6146;48.128;11.476;2023-03-01T16:01:17;6.30;99.90
12166;DHT22;6146;48.128;11.476;2023-03-01T16:03:43;6.30;99.90
12166;DHT22;6146;48.128;11.476;2023-03-01T16:06:10;6.30;99.90
12166;DHT22;6146;48.128;11.476;2023-03-01T16:08:36;6.30;99.90
12166;DHT22;6146;48.128;11.476;2023-03-01T16:11:03;6.30;99.90
12166;DHT22;6146;48.128;11.476;2023-03-01T16:13:31;6.40;99.90
12166;DHT22;6146;48.128;11.476;2023-03-01T16:15:57;6.30;99.90
12166;DHT22;6146;48.128;11.476;2023-03-01T16:18:23;6.30;99.90
12166;DHT22;6146;48.128;11.476;2023-03-01T16:20:49;6.20;99.90
12166;DHT22;6146;48.128;11.476;2023-03-01T16:23:15;6.20;99.90
12166;DHT22;6146;48.128;11.476;2023-03-01T16:25:41;6.20;99.90
12166;DHT22;6146;48.128;11.476;2023-03-01T16:28:07;6.20;99.90
12166;DHT22;6146;48.128;11.476;2023-03-01T16:30:36;6.20;99.90
12166;DHT22;6146;48.128;11.476;2023-03-01T16:33:02;6.20;99.90
12166;DHT22;6146;48.128;11.476;2023-03-01T16:35:32;7.60;99.90
12166;DHT22;6146;48.128;11.476;2023-03-01T16:37:59;6.10;99.90
12166;DHT22;6146;48.128;11.476;2023-03-01T16:40:27;6.10;99.90
12166;DHT22;6146;48.128;11.476;2023-03-01T16:42:54;6.10;99.90
12166;DHT22;6146;48.128;11.476;2023-03-01T16:45:24;6.00;99.90
12166;DHT22;6146;48.128;11.476;2023-03-01T16:47:50;5.90;99.90
12166;DHT22;6146;48.128;11.476;2023-03-01T16:50:16;5.90;99.90
12166;DHT22;6146;48.128;11.476;2023-03-01T16:52:41;5.90;99.90
12166;DHT22;6146;48.128;11.476;2023-03-01T16:55:09;5.90;99.90
12166;DHT22;6146;48.128;11.476;2023-03-01T16:57:35;5.90;99.90
12166;DHT22;6146;48.128;11.476;2023-03-01T17:00:01;5.80;99.90
12166;DHT22;6146;48.128;11.476;2023-03-01T17:02:29;5.80;99.90
12166;DHT22;6146;48.128;11.476;2023-03-01T17:04:55;5.80;99.90
12166;DHT22;6146;48.128;11.476;2023-03-01T17:07:21;5.70;99.90
12166;DHT22;6146;48.128;11.476;2023-03-01T17:09:47;5.60;99.90
12166;DHT22;6146;48.128;11.476;2023-03-01T17:12:13;5.60;99.90
12166;DHT22;6146;48.128;11.476;2023-03-01T17:14:40;5.60;99.90
12166;DHT22;6146;48.128;11.476;2023-03-01T17:17:07;5.60;99.90
12166;DHT22;6146;48.128;11.476;2023-03-01T17:19:33;5.50;99.90
12166;DHT22;6146;48.128;11.476;2023-03-01T17:22:03;5.40;99.90
12166;DHT22;6146;48.128;11.476;2023-03-01T17:24:32;5.40;99.90
12166;DHT22;6146;48.128;11.476;2023-03-01T17:26:58;5.20;99.90
12166;DHT22;6146;48.128;11.476;2023-03-01T17:29:24;5.10;99.90
12166;DHT22;6146;48.128;11.476;2023-03-01T17:31:49;4.80;99.90
12166;DHT22;6146;48.128;11.476;2023-03-01T17:34:15;4.60;99.90
12166;DHT22;6146;48.128;11.476;2023-03-01T17:36:41;4.40;99.90
12166;DHT22;6146;48.128;11.476;2023-03-01T17:39:12;4.20;99.90
12166;DHT22;6146;48.128;11.476;2023-03-01T17:41:37;4.00;99.90
12166;DHT22;6146;48.128;11.476;2023-03-01T17:44:03;3.90;99.90
12166;DHT22;6146;48.128;11.476;2023-03-01T17:46:28;3.80;99.90
12166;DHT22;6146;48.128;11.476;2023-03-01T17:48:54;3.70;99.90
12166;DHT22;6146;48.128;11.476;2023-03-01T17:51:20;3.60;99.90
12166;DHT22;6146;48.128;11.476;2023-03-01T17:53:46;3.60;99.90
12166;DHT22;6146;48.128;11.476;2023-03-01T17:56:12;3.50;99.90
12166;DHT22;6146;48.128;11.476;2023-03-01T17:58:38;3.40;99.90
12166;DHT22;6146;48.128;11.476;2023-03-01T18:01:13;3.40;99.90
12166;DHT22;6146;48.128;11.476;2023-03-01T18:03:40;3.30;99.90
12166;DHT22;6146;48.128;11.476;2023-03-01T18:06:14;3.30;99.90